sensor_id;sensor_type;location;lat;lon;timestamp;P1;P2;P0
78063;PMS5003;67429;51.596;-3.264;2023-08-07T00:00:46;7;7;
78063;PMS5003;67429;51.596;-3.264;2023-08-07T00:03:11;7;7;
78063;PMS5003;67429;51.596;-3.264;2023-08-07T00:05:37;6;6;
78063;PMS5003;67429;51.596;-3.264;2023-08-07T00:08:02;7;7;
78063;PMS5003;67429;51.596;-3.264;2023-08-07T00:10:28;7;7;
78063;PMS5003;67429;51.596;-3.264;2023-08-07T00:12:53;6;5;
78063;PMS5003;67429;51.596;-3.264;2023-08-07T00:15:19;5;5;
78063;PMS5003;67429;51.596;-3.264;2023-08-07T00:17:45;5;4;
78063;PMS5003;67429;51.596;-3.264;2023-08-07T00:20:10;6;6;
78063;PMS5003;67429;51.596;-3.264;2023-08-07T00:22:36;4;4;
78063;PMS5003;67429;51.596;-3.264;2023-08-07T00:25:01;5;5;
78063;PMS5003;67429;51.596;-3.264;2023-08-07T00:27:27;6;5;
78063;PMS5003;67429;51.596;-3.264;2023-08-07T00:29:52;4;4;
78063;PMS5003;67429;51.596;-3.264;2023-08-07T00:32:18;5;5;
78063;PMS5003;67429;51.596;-3.264;2023-08-07T00:34:44;7;7;
78063;PMS5003;67429;51.596;-3.264;2023-08-07T00:37:09;6;6;
78063;PMS5003;67429;51.596;-3.264;2023-08-07T00:39:35;6;6;
78063;PMS5003;67429;51.596;-3.264;2023-08-07T00:42:01;4;4;
78063;PMS5003;67429;51.596;-3.264;2023-08-07T00:44:26;4;4;
78063;PMS5003;67429;51.596;-3.264;2023-08-07T00:46:52;6;6;
78063;PMS5003;67429;51.596;-3.264;2023-08-07T00:49:17;8;8;
78063;PMS5003;67429;51.596;-3.264;2023-08-07T00:51:43;6;6;
78063;PMS5003;67429;51.596;-3.264;2023-08-07T00:54:09;5;5;
78063;PMS5003;67429;51.596;-3.264;2023-08-07T00:56:34;6;6;
78063;PMS5003;67429;51.596;-3.264;2023-08-07T00:59:00;6;5;
78063;PMS5003;67429;51.596;-3.264;2023-08-07T01:01:26;4;4;
78063;PMS5003;67429;51.596;-3.264;2023-08-07T01:03:51;5;5;
78063;PMS5003;67429;51.596;-3.264;2023-08-07T01:06:16;4;4;
78063;PMS5003;67429;51.596;-3.264;2023-08-07T01:08:42;5;5;
78063;PMS5003;67429;51.596;-3.264;2023-08-07T01:11:22;6;6;
78063;PMS5003;67429;51.596;-3.264;2023-08-07T01:13:34;5;5;
78063;PMS5003;67429;51.596;-3.264;2023-08-07T01:15:59;6;6;
78063;PMS5003;67429;51.596;-3.264;2023-08-07T01:18:24;7;7;
78063;PMS5003;67429;51.596;-3.264;2023-08-07T01:20:50;4;4;
78063;PMS5003;67429;51.596;-3.264;2023-08-07T01:23:15;6;5;
78063;PMS5003;67429;51.596;-3.264;2023-08-07T01:25:41;8;5;
78063;PMS5003;67429;51.596;-3.264;2023-08-07T01:28:09;7;6;
78063;PMS5003;67429;51.596;-3.264;2023-08-07T01:30:33;7;7;
78063;PMS5003;67429;51.596;-3.264;2023-08-07T01:32:59;5;5;
78063;PMS5003;67429;51.596;-3.264;2023-08-07T01:35:23;5;5;
78063;PMS5003;67429;51.596;-3.264;2023-08-07T01:37:49;6;6;
78063;PMS5003;67429;51.596;-3.264;2023-08-07T01:40:14;5;5;
78063;PMS5003;67429;51.596;-3.264;2023-08-07T01:42:40;5;5;
78063;PMS5003;67429;51.596;-3.264;2023-08-07T01:45:06;4;4;
78063;PMS5003;67429;51.596;-3.264;2023-08-07T01:47:31;5;5;
78063;PMS5003;67429;51.596;-3.264;2023-08-07T01:49:57;5;5;
78063;PMS5003;67429;51.596;-3.264;2023-08-07T01:52:23;5;5;
78063;PMS5003;67429;51.596;-3.264;2023-08-07T01:54:48;6;6;
78063;PMS5003;67429;51.596;-3.264;2023-08-07T01:57:14;7;6;
78063;PMS5003;67429;51.596;-3.264;2023-08-07T01:59:40;5;5;
78063;PMS5003;67429;51.596;-3.264;2023-08-07T02:02:05;5;5;
78063;PMS5003;67429;51.596;-3.264;2023-08-07T02:04:31;6;6;
78063;PMS5003;67429;51.596;-3.264;2023-08-07T02:06:57;6;6;
78063;PMS5003;67429;51.596;-3.264;2023-08-07T02:09:22;7;6;
78063;PMS5003;67429;51.596;-3.264;2023-08-07T02:11:48;4;4;
78063;PMS5003;67429;51.596;-3.264;2023-08-07T02:14:13;6;6;
78063;PMS5003;67429;51.596;-3.264;2023-08-07T02:16:39;5;5;
78063;PMS5003;67429;51.596;-3.264;2023-08-07T02:19:04;5;5;
78063;PMS5003;67429;51.596;-3.264;2023-08-07T02:21:31;5;5;
78063;PMS5003;67429;51.596;-3.264;2023-08-07T02:23:56;6;6;
78063;PMS5003;67429;51.596;-3.264;2023-08-07T02:26:21;6;6;
78063;PMS5003;67429;51.596;-3.264;2023-08-07T02:28:47;5;5;
78063;PMS5003;67429;51.596;-3.264;2023-08-07T02:31:14;4;4;
78063;PMS5003;67429;51.596;-3.264;2023-08-07T02:33:38;5;5;
78063;PMS5003;67429;51.596;-3.264;2023-08-07T02:36:04;5;5;
78063;PMS5003;67429;51.596;-3.264;2023-08-07T02:38:29;6;6;
78063;PMS5003;67429;51.596;-3.264;2023-08-07T02:40:55;6;6;
78063;PMS5003;67429;51.596;-3.264;2023-08-07T02:43:21;6;5;
78063;PMS5003;67429;51.596;-3.264;2023-08-07T02:45:47;6;6;
78063;PMS5003;67429;51.596;-3.264;2023-08-07T02:48:12;5;5;
78063;PMS5003;67429;51.596;-3.264;2023-08-07T02:50:38;5;5;
78063;PMS5003;67429;51.596;-3.264;2023-08-07T02:53:03;4;4;
78063;PMS5003;67429;51.596;-3.264;2023-08-07T02:55:29;4;4;
78063;PMS5003;67429;51.596;-3.264;2023-08-07T02:57:55;5;4;
78063;PMS5003;67429;51.596;-3.264;2023-08-07T03:00:20;7;6;
78063;PMS5003;67429;51.596;-3.264;2023-08-07T03:02:46;8;7;
78063;PMS5003;67429;51.596;-3.264;2023-08-07T03:05:11;6;5;
78063;PMS5003;67429;51.596;-3.264;2023-08-07T03:07:36;6;5;
78063;PMS5003;67429;51.596;-3.264;2023-08-07T03:10:02;5;5;
78063;PMS5003;67429;51.596;-3.264;2023-08-07T03:12:28;5;5;
78063;PMS5003;67429;51.596;-3.264;2023-08-07T03:14:53;4;4;
78063;PMS5003;67429;51.596;-3.264;2023-08-07T03:17:19;4;4;
78063;PMS5003;67429;51.596;-3.264;2023-08-07T03:19:45;4;4;
78063;PMS5003;67429;51.596;-3.264;2023-08-07T03:22:10;4;4;
78063;PMS5003;67429;51.596;-3.264;2023-08-07T03:24:36;5;5;
78063;PMS5003;67429;51.596;-3.264;2023-08-07T03:27:02;4;4;
78063;PMS5003;67429;51.596;-3.264;2023-08-07T03:29:27;4;4;
78063;PMS5003;67429;51.596;-3.264;2023-08-07T03:31:52;6;5;
78063;PMS5003;67429;51.596;-3.264;2023-08-07T03:34:18;4;4;
78063;PMS5003;67429;51.596;-3.264;2023-08-07T03:36:44;5;5;
78063;PMS5003;67429;51.596;-3.264;2023-08-07T03:39:09;4;4;
78063;PMS5003;67429;51.596;-3.264;2023-08-07T03:41:35;5;5;
78063;PMS5003;67429;51.596;-3.264;2023-08-07T03:44:01;4;4;
78063;PMS5003;67429;51.596;-3.264;2023-08-07T03:46:26;3;3;
78063;PMS5003;67429;51.596;-3.264;2023-08-07T03:48:51;5;4;
78063;PMS5003;67429;51.596;-3.264;2023-08-07T03:51:17;5;4;
78063;PMS5003;67429;51.596;-3.264;2023-08-07T03:53:43;5;5;
78063;PMS5003;67429;51.596;-3.264;2023-08-07T03:56:09;5;4;
78063;PMS5003;67429;51.596;-3.264;2023-08-07T03:58:34;4;4;
78063;PMS5003;67429;51.596;-3.264;2023-08-07T04:01:00;3;3;
78063;PMS5003;67429;51.596;-3.264;2023-08-07T04:03:25;4;3;
78063;PMS5003;67429;51.596;-3.264;2023-08-07T04:05:51;4;4;
78063;PMS5003;67429;51.596;-3.264;2023-08-07T04:08:16;4;4;
78063;PMS5003;67429;51.596;-3.264;2023-08-07T04:10:42;4;4;
78063;PMS5003;67429;51.596;-3.264;2023-08-07T04:13:08;5;5;
78063;PMS5003;67429;51.596;-3.264;2023-08-07T04:15:33;5;5;
78063;PMS5003;67429;51.596;-3.264;2023-08-07T04:17:59;4;4;
78063;PMS5003;67429;51.596;-3.264;2023-08-07T04:20:25;5;5;
78063;PMS5003;67429;51.596;-3.264;2023-08-07T04:22:50;4;4;
78063;PMS5003;67429;51.596;-3.264;2023-08-07T04:25:16;4;4;
78063;PMS5003;67429;51.596;-3.264;2023-08-07T04:27:42;4;4;
78063;PMS5003;67429;51.596;-3.264;2023-08-07T04:30:07;4;4;
78063;PMS5003;67429;51.596;-3.264;2023-08-07T04:32:33;4;4;
78063;PMS5003;67429;51.596;-3.264;2023-08-07T04:34:58;4;4;
78063;PMS5003;67429;51.596;-3.264;2023-08-07T04:37:24;4;4;
78063;PMS5003;67429;51.596;-3.264;2023-08-07T04:39:50;4;4;
78063;PMS5003;67429;51.596;-3.264;2023-08-07T04:42:15;3;3;
78063;PMS5003;67429;51.596;-3.264;2023-08-07T04:44:41;5;3;
78063;PMS5003;67429;51.596;-3.264;2023-08-07T04:47:07;5;5;
78063;PMS5003;67429;51.596;-3.264;2023-08-07T04:49:32;5;5;
78063;PMS5003;67429;51.596;-3.264;2023-08-07T04:51:58;5;5;
78063;PMS5003;67429;51.596;-3.264;2023-08-07T04:54:24;4;3;
78063;PMS5003;67429;51.596;-3.264;2023-08-07T04:56:49;5;5;
78063;PMS5003;67429;51.596;-3.264;2023-08-07T04:59:15;4;4;
78063;PMS5003;67429;51.596;-3.264;2023-08-07T05:01:41;3;3;
78063;PMS5003;67429;51.596;-3.264;2023-08-07T05:04:06;4;4;
78063;PMS5003;67429;51.596;-3.264;2023-08-07T05:06:32;6;5;
78063;PMS5003;67429;51.596;-3.264;2023-08-07T05:08:57;4;4;
78063;PMS5003;67429;51.596;-3.264;2023-08-07T05:11:23;5;4;
78063;PMS5003;67429;51.596;-3.264;2023-08-07T05:13:49;5;5;
78063;PMS5003;67429;51.596;-3.264;2023-08-07T05:16:14;3;3;
78063;PMS5003;67429;51.596;-3.264;2023-08-07T05:18:40;5;5;
78063;PMS5003;67429;51.596;-3.264;2023-08-07T05:21:05;6;5;
78063;PMS5003;67429;51.596;-3.264;2023-08-07T05:23:31;5;5;
78063;PMS5003;67429;51.596;-3.264;2023-08-07T05:25:57;4;4;
78063;PMS5003;67429;51.596;-3.264;2023-08-07T05:28:22;4;4;
78063;PMS5003;67429;51.596;-3.264;2023-08-07T05:30:48;4;4;
78063;PMS5003;67429;51.596;-3.264;2023-08-07T05:33:13;4;4;
78063;PMS5003;67429;51.596;-3.264;2023-08-07T05:35:39;3;3;
78063;PMS5003;67429;51.596;-3.264;2023-08-07T05:38:05;4;4;
78063;PMS5003;67429;51.596;-3.264;2023-08-07T05:40:30;4;4;
78063;PMS5003;67429;51.596;-3.264;2023-08-07T05:42:56;4;4;
78063;PMS5003;67429;51.596;-3.264;2023-08-07T05:45:21;3;3;
78063;PMS5003;67429;51.596;-3.264;2023-08-07T05:47:47;4;4;
78063;PMS5003;67429;51.596;-3.264;2023-08-07T05:50:13;5;5;
78063;PMS5003;67429;51.596;-3.264;2023-08-07T05:52:38;4;4;
78063;PMS5003;67429;51.596;-3.264;2023-08-07T05:55:04;2;2;
78063;PMS5003;67429;51.596;-3.264;2023-08-07T05:57:29;3;3;
78063;PMS5003;67429;51.596;-3.264;2023-08-07T05:59:55;5;5;
78063;PMS5003;67429;51.596;-3.264;2023-08-07T06:02:21;3;3;
78063;PMS5003;67429;51.596;-3.264;2023-08-07T06:04:46;4;4;
78063;PMS5003;67429;51.596;-3.264;2023-08-07T06:07:12;3;3;
78063;PMS5003;67429;51.596;-3.264;2023-08-07T06:09:37;4;4;
78063;PMS5003;67429;51.596;-3.264;2023-08-07T06:12:03;5;5;
78063;PMS5003;67429;51.596;-3.264;2023-08-07T06:14:29;4;4;
78063;PMS5003;67429;51.596;-3.264;2023-08-07T06:16:54;3;3;
78063;PMS5003;67429;51.596;-3.264;2023-08-07T06:19:20;3;3;
78063;PMS5003;67429;51.596;-3.264;2023-08-07T06:21:45;3;3;
78063;PMS5003;67429;51.596;-3.264;2023-08-07T06:24:11;4;3;
78063;PMS5003;67429;51.596;-3.264;2023-08-07T06:26:36;4;4;
78063;PMS5003;67429;51.596;-3.264;2023-08-07T06:29:02;5;4;
78063;PMS5003;67429;51.596;-3.264;2023-08-07T06:31:27;3;3;
78063;PMS5003;67429;51.596;-3.264;2023-08-07T06:33:53;3;3;
78063;PMS5003;67429;51.596;-3.264;2023-08-07T06:36:19;6;6;
78063;PMS5003;67429;51.596;-3.264;2023-08-07T06:38:44;7;6;
78063;PMS5003;67429;51.596;-3.264;2023-08-07T06:41:10;7;7;
78063;PMS5003;67429;51.596;-3.264;2023-08-07T06:43:36;5;5;
78063;PMS5003;67429;51.596;-3.264;2023-08-07T06:46:01;7;6;
78063;PMS5003;67429;51.596;-3.264;2023-08-07T06:48:27;6;6;
78063;PMS5003;67429;51.596;-3.264;2023-08-07T06:50:52;6;6;
78063;PMS5003;67429;51.596;-3.264;2023-08-07T06:53:18;5;5;
78063;PMS5003;67429;51.596;-3.264;2023-08-07T06:55:43;3;3;
78063;PMS5003;67429;51.596;-3.264;2023-08-07T06:58:09;2;2;
78063;PMS5003;67429;51.596;-3.264;2023-08-07T07:00:34;4;4;
78063;PMS5003;67429;51.596;-3.264;2023-08-07T07:03:00;5;5;
78063;PMS5003;67429;51.596;-3.264;2023-08-07T07:05:25;5;4;
78063;PMS5003;67429;51.596;-3.264;2023-08-07T07:07:51;5;5;
78063;PMS5003;67429;51.596;-3.264;2023-08-07T07:10:16;4;4;
78063;PMS5003;67429;51.596;-3.264;2023-08-07T07:12:42;6;6;
78063;PMS5003;67429;51.596;-3.264;2023-08-07T07:15:08;4;4;
78063;PMS5003;67429;51.596;-3.264;2023-08-07T07:17:33;3;3;
78063;PMS5003;67429;51.596;-3.264;2023-08-07T07:19:58;3;3;
78063;PMS5003;67429;51.596;-3.264;2023-08-07T07:22:24;3;3;
78063;PMS5003;67429;51.596;-3.264;2023-08-07T07:24:50;4;4;
78063;PMS5003;67429;51.596;-3.264;2023-08-07T07:27:15;4;4;
78063;PMS5003;67429;51.596;-3.264;2023-08-07T07:29:40;5;5;
78063;PMS5003;67429;51.596;-3.264;2023-08-07T07:32:06;2;2;
78063;PMS5003;67429;51.596;-3.264;2023-08-07T07:34:31;3;3;
78063;PMS5003;67429;51.596;-3.264;2023-08-07T07:36:57;3;3;
78063;PMS5003;67429;51.596;-3.264;2023-08-07T07:39:22;5;4;
78063;PMS5003;67429;51.596;-3.264;2023-08-07T07:41:48;3;3;
78063;PMS5003;67429;51.596;-3.264;2023-08-07T07:44:13;1;1;
78063;PMS5003;67429;51.596;-3.264;2023-08-07T07:46:39;3;3;
78063;PMS5003;67429;51.596;-3.264;2023-08-07T07:49:04;5;4;
78063;PMS5003;67429;51.596;-3.264;2023-08-07T07:51:29;4;4;
78063;PMS5003;67429;51.596;-3.264;2023-08-07T07:53:55;4;4;
78063;PMS5003;67429;51.596;-3.264;2023-08-07T07:56:20;5;4;
78063;PMS5003;67429;51.596;-3.264;2023-08-07T07:58:46;4;4;
78063;PMS5003;67429;51.596;-3.264;2023-08-07T08:01:11;5;3;
78063;PMS5003;67429;51.596;-3.264;2023-08-07T08:03:37;5;5;
78063;PMS5003;67429;51.596;-3.264;2023-08-07T08:06:03;4;4;
78063;PMS5003;67429;51.596;-3.264;2023-08-07T08:08:28;2;2;
78063;PMS5003;67429;51.596;-3.264;2023-08-07T08:10:53;4;4;
78063;PMS5003;67429;51.596;-3.264;2023-08-07T08:13:18;4;4;
78063;PMS5003;67429;51.596;-3.264;2023-08-07T08:15:44;3;3;
78063;PMS5003;67429;51.596;-3.264;2023-08-07T08:18:10;4;3;
78063;PMS5003;67429;51.596;-3.264;2023-08-07T08:20:35;3;3;
78063;PMS5003;67429;51.596;-3.264;2023-08-07T08:23:00;3;3;
78063;PMS5003;67429;51.596;-3.264;2023-08-07T08:25:26;4;4;
78063;PMS5003;67429;51.596;-3.264;2023-08-07T08:27:54;2;2;
78063;PMS5003;67429;51.596;-3.264;2023-08-07T08:30:17;1;1;
78063;PMS5003;67429;51.596;-3.264;2023-08-07T08:32:42;2;2;
78063;PMS5003;67429;51.596;-3.264;2023-08-07T08:35:08;5;5;
78063;PMS5003;67429;51.596;-3.264;2023-08-07T08:37:33;11;11;
78063;PMS5003;67429;51.596;-3.264;2023-08-07T08:39:58;7;7;
78063;PMS5003;67429;51.596;-3.264;2023-08-07T08:42:24;15;15;
78063;PMS5003;67429;51.596;-3.264;2023-08-07T08:44:51;7;6;
78063;PMS5003;67429;51.596;-3.264;2023-08-07T08:47:15;6;5;
78063;PMS5003;67429;51.596;-3.264;2023-08-07T08:49:41;5;4;
78063;PMS5003;67429;51.596;-3.264;2023-08-07T08:52:06;5;5;
78063;PMS5003;67429;51.596;-3.264;2023-08-07T08:54:31;5;5;
78063;PMS5003;67429;51.596;-3.264;2023-08-07T08:56:56;4;4;
78063;PMS5003;67429;51.596;-3.264;2023-08-07T08:59:22;4;4;
78063;PMS5003;67429;51.596;-3.264;2023-08-07T09:01:47;3;3;
78063;PMS5003;67429;51.596;-3.264;2023-08-07T09:04:13;2;2;
78063;PMS5003;67429;51.596;-3.264;2023-08-07T09:06:38;5;4;
78063;PMS5003;67429;51.596;-3.264;2023-08-07T09:09:03;3;3;
78063;PMS5003;67429;51.596;-3.264;2023-08-07T09:11:29;4;4;
78063;PMS5003;67429;51.596;-3.264;2023-08-07T09:13:54;5;5;
78063;PMS5003;67429;51.596;-3.264;2023-08-07T09:16:20;4;4;
78063;PMS5003;67429;51.596;-3.264;2023-08-07T09:18:50;5;5;
78063;PMS5003;67429;51.596;-3.264;2023-08-07T09:21:11;6;5;
78063;PMS5003;67429;51.596;-3.264;2023-08-07T09:23:36;6;6;
78063;PMS5003;67429;51.596;-3.264;2023-08-07T09:26:02;6;6;
78063;PMS5003;67429;51.596;-3.264;2023-08-07T09:28:28;5;5;
78063;PMS5003;67429;51.596;-3.264;2023-08-07T09:30:52;8;8;
78063;PMS5003;67429;51.596;-3.264;2023-08-07T09:33:21;9;8;
78063;PMS5003;67429;51.596;-3.264;2023-08-07T09:35:43;9;9;
78063;PMS5003;67429;51.596;-3.264;2023-08-07T09:38:08;11;11;
78063;PMS5003;67429;51.596;-3.264;2023-08-07T09:40:34;15;13;
78063;PMS5003;67429;51.596;-3.264;2023-08-07T10:01:19;6;6;
78063;PMS5003;67429;51.596;-3.264;2023-08-07T10:03:44;9;9;
78063;PMS5003;67429;51.596;-3.264;2023-08-07T10:06:10;13;13;
78063;PMS5003;67429;51.596;-3.264;2023-08-07T10:08:35;9;9;
78063;PMS5003;67429;51.596;-3.264;2023-08-07T10:11:01;9;9;
78063;PMS5003;67429;51.596;-3.264;2023-08-07T10:13:26;9;9;
78063;PMS5003;67429;51.596;-3.264;2023-08-07T10:15:51;9;9;
78063;PMS5003;67429;51.596;-3.264;2023-08-07T10:18:17;9;8;
78063;PMS5003;67429;51.596;-3.264;2023-08-07T10:20:42;6;6;
78063;PMS5003;67429;51.596;-3.264;2023-08-07T10:23:09;8;7;
78063;PMS5003;67429;51.596;-3.264;2023-08-07T10:25:33;11;10;
78063;PMS5003;67429;51.596;-3.264;2023-08-07T10:27:59;7;7;
78063;PMS5003;67429;51.596;-3.264;2023-08-07T10:30:24;6;6;
78063;PMS5003;67429;51.596;-3.264;2023-08-07T10:32:49;6;6;
78063;PMS5003;67429;51.596;-3.264;2023-08-07T10:37:41;6;6;
78063;PMS5003;67429;51.596;-3.264;2023-08-07T10:40:06;9;9;
78063;PMS5003;67429;51.596;-3.264;2023-08-07T10:42:33;7;7;
78063;PMS5003;67429;51.596;-3.264;2023-08-07T10:45:00;9;8;
78063;PMS5003;67429;51.596;-3.264;2023-08-07T10:49:47;6;6;
78063;PMS5003;67429;51.596;-3.264;2023-08-07T10:52:13;6;6;
78063;PMS5003;67429;51.596;-3.264;2023-08-07T10:54:38;7;7;
78063;PMS5003;67429;51.596;-3.264;2023-08-07T10:57:04;6;6;
78063;PMS5003;67429;51.596;-3.264;2023-08-07T10:59:29;4;4;
78063;PMS5003;67429;51.596;-3.264;2023-08-07T11:01:54;5;4;
78063;PMS5003;67429;51.596;-3.264;2023-08-07T11:04:21;8;6;
78063;PMS5003;67429;51.596;-3.264;2023-08-07T11:06:47;5;5;
78063;PMS5003;67429;51.596;-3.264;2023-08-07T11:09:10;5;4;
78063;PMS5003;67429;51.596;-3.264;2023-08-07T11:11:36;4;4;
78063;PMS5003;67429;51.596;-3.264;2023-08-07T11:14:01;6;6;
78063;PMS5003;67429;51.596;-3.264;2023-08-07T11:16:27;9;9;
78063;PMS5003;67429;51.596;-3.264;2023-08-07T11:18:52;5;5;
78063;PMS5003;67429;51.596;-3.264;2023-08-07T11:21:17;4;4;
78063;PMS5003;67429;51.596;-3.264;2023-08-07T11:23:42;4;4;
78063;PMS5003;67429;51.596;-3.264;2023-08-07T11:26:08;6;5;
78063;PMS5003;67429;51.596;-3.264;2023-08-07T11:28:33;6;6;
78063;PMS5003;67429;51.596;-3.264;2023-08-07T11:30:58;6;6;
78063;PMS5003;67429;51.596;-3.264;2023-08-07T11:33:24;5;4;
78063;PMS5003;67429;51.596;-3.264;2023-08-07T11:35:49;5;5;
78063;PMS5003;67429;51.596;-3.264;2023-08-07T11:38:15;4;4;
78063;PMS5003;67429;51.596;-3.264;2023-08-07T11:40:40;4;4;
78063;PMS5003;67429;51.596;-3.264;2023-08-07T11:43:05;6;6;
78063;PMS5003;67429;51.596;-3.264;2023-08-07T11:45:30;6;6;
78063;PMS5003;67429;51.596;-3.264;2023-08-07T11:47:56;6;5;
78063;PMS5003;67429;51.596;-3.264;2023-08-07T11:50:21;4;4;
78063;PMS5003;67429;51.596;-3.264;2023-08-07T11:52:47;4;4;
78063;PMS5003;67429;51.596;-3.264;2023-08-07T11:55:13;7;6;
78063;PMS5003;67429;51.596;-3.264;2023-08-07T11:57:38;7;6;
78063;PMS5003;67429;51.596;-3.264;2023-08-07T12:00:03;6;5;
78063;PMS5003;67429;51.596;-3.264;2023-08-07T12:02:30;5;4;
78063;PMS5003;67429;51.596;-3.264;2023-08-07T12:04:57;6;6;
78063;PMS5003;67429;51.596;-3.264;2023-08-07T12:07:19;7;7;
78063;PMS5003;67429;51.596;-3.264;2023-08-07T12:09:47;23;23;
78063;PMS5003;67429;51.596;-3.264;2023-08-07T12:12:11;8;8;
78063;PMS5003;67429;51.596;-3.264;2023-08-07T12:14:34;8;7;
78063;PMS5003;67429;51.596;-3.264;2023-08-07T12:17:01;7;7;
78063;PMS5003;67429;51.596;-3.264;2023-08-07T12:21:51;6;6;
78063;PMS5003;67429;51.596;-3.264;2023-08-07T12:24:17;4;4;
78063;PMS5003;67429;51.596;-3.264;2023-08-07T12:26:42;6;6;
78063;PMS5003;67429;51.596;-3.264;2023-08-07T12:29:07;7;6;
78063;PMS5003;67429;51.596;-3.264;2023-08-07T12:31:32;4;4;
78063;PMS5003;67429;51.596;-3.264;2023-08-07T12:33:58;4;4;
78063;PMS5003;67429;51.596;-3.264;2023-08-07T12:36:23;5;5;
78063;PMS5003;67429;51.596;-3.264;2023-08-07T12:38:49;6;5;
78063;PMS5003;67429;51.596;-3.264;2023-08-07T12:41:14;4;4;
78063;PMS5003;67429;51.596;-3.264;2023-08-07T12:43:41;5;5;
78063;PMS5003;67429;51.596;-3.264;2023-08-07T12:46:05;4;3;
78063;PMS5003;67429;51.596;-3.264;2023-08-07T12:48:30;5;5;
78063;PMS5003;67429;51.596;-3.264;2023-08-07T12:50:57;6;6;
78063;PMS5003;67429;51.596;-3.264;2023-08-07T12:53:21;5;5;
78063;PMS5003;67429;51.596;-3.264;2023-08-07T12:55:47;4;4;
78063;PMS5003;67429;51.596;-3.264;2023-08-07T12:58:12;6;5;
78063;PMS5003;67429;51.596;-3.264;2023-08-07T13:00:38;6;6;
78063;PMS5003;67429;51.596;-3.264;2023-08-07T13:03:03;3;3;
78063;PMS5003;67429;51.596;-3.264;2023-08-07T13:05:29;7;6;
78063;PMS5003;67429;51.596;-3.264;2023-08-07T13:07:54;7;7;
78063;PMS5003;67429;51.596;-3.264;2023-08-07T13:10:19;5;5;
78063;PMS5003;67429;51.596;-3.264;2023-08-07T13:12:45;6;6;
78063;PMS5003;67429;51.596;-3.264;2023-08-07T13:15:11;6;6;
78063;PMS5003;67429;51.596;-3.264;2023-08-07T13:17:35;6;5;
78063;PMS5003;67429;51.596;-3.264;2023-08-07T13:20:03;5;4;
78063;PMS5003;67429;51.596;-3.264;2023-08-07T13:22:26;6;6;
78063;PMS5003;67429;51.596;-3.264;2023-08-07T13:24:51;3;2;
78063;PMS5003;67429;51.596;-3.264;2023-08-07T13:27:17;4;4;
78063;PMS5003;67429;51.596;-3.264;2023-08-07T13:29:43;4;4;
78063;PMS5003;67429;51.596;-3.264;2023-08-07T13:32:07;5;3;
78063;PMS5003;67429;51.596;-3.264;2023-08-07T13:34:33;3;3;
78063;PMS5003;67429;51.596;-3.264;2023-08-07T13:36:58;3;3;
78063;PMS5003;67429;51.596;-3.264;2023-08-07T13:39:24;4;4;
78063;PMS5003;67429;51.596;-3.264;2023-08-07T13:41:49;4;4;
78063;PMS5003;67429;51.596;-3.264;2023-08-07T13:44:14;5;4;
78063;PMS5003;67429;51.596;-3.264;2023-08-07T13:46:40;2;2;
78063;PMS5003;67429;51.596;-3.264;2023-08-07T13:49:05;4;4;
78063;PMS5003;67429;51.596;-3.264;2023-08-07T13:51:31;2;2;
78063;PMS5003;67429;51.596;-3.264;2023-08-07T13:53:56;3;3;
78063;PMS5003;67429;51.596;-3.264;2023-08-07T13:56:22;3;3;
78063;PMS5003;67429;51.596;-3.264;2023-08-07T13:58:47;4;3;
78063;PMS5003;67429;51.596;-3.264;2023-08-07T14:01:12;2;2;
78063;PMS5003;67429;51.596;-3.264;2023-08-07T14:03:38;5;4;
78063;PMS5003;67429;51.596;-3.264;2023-08-07T14:06:03;5;3;
78063;PMS5003;67429;51.596;-3.264;2023-08-07T14:08:28;3;3;
78063;PMS5003;67429;51.596;-3.264;2023-08-07T14:10:54;4;4;
78063;PMS5003;67429;51.596;-3.264;2023-08-07T14:13:20;4;3;
78063;PMS5003;67429;51.596;-3.264;2023-08-07T14:15:45;3;3;
78063;PMS5003;67429;51.596;-3.264;2023-08-07T14:18:11;4;4;
78063;PMS5003;67429;51.596;-3.264;2023-08-07T14:20:36;4;3;
78063;PMS5003;67429;51.596;-3.264;2023-08-07T14:23:01;2;2;
78063;PMS5003;67429;51.596;-3.264;2023-08-07T14:25:28;3;3;
78063;PMS5003;67429;51.596;-3.264;2023-08-07T14:27:52;3;2;
78063;PMS5003;67429;51.596;-3.264;2023-08-07T14:30:17;2;2;
78063;PMS5003;67429;51.596;-3.264;2023-08-07T14:32:43;1;1;
78063;PMS5003;67429;51.596;-3.264;2023-08-07T14:35:08;1;1;
78063;PMS5003;67429;51.596;-3.264;2023-08-07T14:37:33;1;1;
78063;PMS5003;67429;51.596;-3.264;2023-08-07T14:39:59;3;3;
78063;PMS5003;67429;51.596;-3.264;2023-08-07T14:42:24;2;1;
78063;PMS5003;67429;51.596;-3.264;2023-08-07T14:44:50;0;0;
78063;PMS5003;67429;51.596;-3.264;2023-08-07T14:47:15;1;1;
78063;PMS5003;67429;51.596;-3.264;2023-08-07T14:49:40;2;2;
78063;PMS5003;67429;51.596;-3.264;2023-08-07T14:52:06;1;1;
78063;PMS5003;67429;51.596;-3.264;2023-08-07T14:54:32;1;1;
78063;PMS5003;67429;51.596;-3.264;2023-08-07T14:56:58;1;1;
78063;PMS5003;67429;51.596;-3.264;2023-08-07T14:59:22;1;1;
78063;PMS5003;67429;51.596;-3.264;2023-08-07T15:01:48;1;1;
78063;PMS5003;67429;51.596;-3.264;2023-08-07T15:04:13;0;0;
78063;PMS5003;67429;51.596;-3.264;2023-08-07T15:06:38;1;1;
78063;PMS5003;67429;51.596;-3.264;2023-08-07T15:09:04;1;1;
78063;PMS5003;67429;51.596;-3.264;2023-08-07T15:11:29;1;1;
78063;PMS5003;67429;51.596;-3.264;2023-08-07T15:13:55;2;2;
78063;PMS5003;67429;51.596;-3.264;2023-08-07T15:16:22;1;1;
78063;PMS5003;67429;51.596;-3.264;2023-08-07T15:18:46;3;2;
78063;PMS5003;67429;51.596;-3.264;2023-08-07T15:21:11;1;1;
78063;PMS5003;67429;51.596;-3.264;2023-08-07T15:23:36;1;1;
78063;PMS5003;67429;51.596;-3.264;2023-08-07T15:26:02;2;2;
78063;PMS5003;67429;51.596;-3.264;2023-08-07T15:28:27;1;1;
78063;PMS5003;67429;51.596;-3.264;2023-08-07T15:30:53;1;1;
78063;PMS5003;67429;51.596;-3.264;2023-08-07T15:33:18;1;1;
78063;PMS5003;67429;51.596;-3.264;2023-08-07T15:35:43;0;0;
78063;PMS5003;67429;51.596;-3.264;2023-08-07T15:38:09;1;1;
78063;PMS5003;67429;51.596;-3.264;2023-08-07T15:40:35;2;1;
78063;PMS5003;67429;51.596;-3.264;2023-08-07T15:43:00;2;2;
78063;PMS5003;67429;51.596;-3.264;2023-08-07T15:45:25;0;0;
78063;PMS5003;67429;51.596;-3.264;2023-08-07T15:47:51;2;2;
78063;PMS5003;67429;51.596;-3.264;2023-08-07T15:50:17;1;1;
78063;PMS5003;67429;51.596;-3.264;2023-08-07T15:52:43;0;0;
78063;PMS5003;67429;51.596;-3.264;2023-08-07T15:55:07;1;1;
78063;PMS5003;67429;51.596;-3.264;2023-08-07T15:57:32;0;0;
78063;PMS5003;67429;51.596;-3.264;2023-08-07T15:59:57;1;1;
78063;PMS5003;67429;51.596;-3.264;2023-08-07T16:02:23;2;2;
78063;PMS5003;67429;51.596;-3.264;2023-08-07T16:04:48;1;1;
78063;PMS5003;67429;51.596;-3.264;2023-08-07T16:07:14;1;1;
78063;PMS5003;67429;51.596;-3.264;2023-08-07T16:09:39;1;1;
78063;PMS5003;67429;51.596;-3.264;2023-08-07T16:12:05;1;1;
78063;PMS5003;67429;51.596;-3.264;2023-08-07T16:14:32;0;0;
78063;PMS5003;67429;51.596;-3.264;2023-08-07T16:16:55;1;1;
78063;PMS5003;67429;51.596;-3.264;2023-08-07T16:19:21;1;1;
78063;PMS5003;67429;51.596;-3.264;2023-08-07T16:21:46;2;2;
78063;PMS5003;67429;51.596;-3.264;2023-08-07T16:24:12;2;2;
78063;PMS5003;67429;51.596;-3.264;2023-08-07T16:26:37;1;1;
78063;PMS5003;67429;51.596;-3.264;2023-08-07T16:29:02;1;1;
78063;PMS5003;67429;51.596;-3.264;2023-08-07T16:31:28;3;3;
78063;PMS5003;67429;51.596;-3.264;2023-08-07T16:33:54;1;1;
78063;PMS5003;67429;51.596;-3.264;2023-08-07T16:36:19;1;1;
78063;PMS5003;67429;51.596;-3.264;2023-08-07T16:38:44;2;2;
78063;PMS5003;67429;51.596;-3.264;2023-08-07T16:41:09;1;1;
78063;PMS5003;67429;51.596;-3.264;2023-08-07T16:43:36;1;1;
78063;PMS5003;67429;51.596;-3.264;2023-08-07T16:46:01;3;3;